Time;durP1;ratioP1;P1;durP2;ratioP2;P2;SDS_P1;SDS_P2;PMS_P1;PMS_P2;Temp;Humidity;BMP_temperature;BMP_pressure;BME280_temperature;BME280_humidity;BME280_pressure;Samples;Min_cycle;Max_cycle;Signal;HPM_P1;HPM_P2
2022/06/21 00:00:54;;;;;;;;;;;;;;;;;;5081934;28;19924;-88
2022/06/21 00:03:20;;;;;;;;;;;;;;;;;;5080822;28;19920;-89
2022/06/21 00:05:46;;;;;;;;;;;;;;;;;;5081844;28;19924;-90
2022/06/21 00:08:12;;;;;;;;;;;;;;;;;;5071021;28;19970;-91
2022/06/21 00:10:37;;;;;;;;;;;;;;;;;;5065336;28;20027;-90
2022/06/21 00:13:03;;;;;;;;;;;;;;;;;;5066111;28;19927;-90
2022/06/21 00:15:29;;;;;;;;;;;;;;;;;;5067114;28;19923;-89
2022/06/21 00:17:55;;;;;;;;;;;;;;;;;;5063547;28;19927;-90
2022/06/21 00:20:21;;;;;;;;;;;;;;;;;;5066179;28;20373;-89
2022/06/21 00:22:48;;;;;;;;;;;;;;;;;;5062533;28;19936;-89
2022/06/21 00:25:15;;;;;;;;;;;;;;;;;;5062720;28;19967;-88
2022/06/21 00:27:41;;;;;;;;;;;;;;;;;;5083627;28;20010;-88
2022/06/21 00:30:06;;;;;;;;;;;;;;;;;;5089316;28;20324;-90
2022/06/21 00:32:32;;;;;;;;;;;;;;;;;;5070776;28;20274;-89
2022/06/21 00:34:58;;;;;;;;;;;;;;;;;;5083240;28;19955;-88
2022/06/21 00:37:24;;;;;;;;;;;;;;;;;;5083410;28;19920;-89
2022/06/21 00:39:51;;;;;;;;;;;;;;;;;;5083672;28;19963;-88
2022/06/21 00:42:17;;;;;;;;;;;;;;;;;;5079182;28;19927;-88
2022/06/21 00:44:43;;;;;;;;;;;;;;;;;;5067989;28;19919;-89
2022/06/21 00:47:09;;;;;;;;;;;;;;;;;;5078809;28;20258;-90
2022/06/21 00:49:35;;;;;;;;;;;;;;;;;;5063732;28;20315;-89
2022/06/21 00:52:01;;;;;;;;;;;;;;;;;;5080918;28;19920;-90
2022/06/21 00:54:27;;;;;;;;;;;;;;;;;;5083135;28;19945;-91
2022/06/21 00:56:53;;;;;;;;;;;;;;;;;;5065066;28;19920;-90
2022/06/21 00:59:19;;;;;;;;;;;;;;;;;;5081938;28;20418;-89
2022/06/21 01:01:45;;;;;;;;;;;;;;;;;;5080255;28;20010;-89
2022/06/21 01:04:11;;;;;;;;;;;;;;;;;;5079462;28;19924;-91
2022/06/21 01:06:36;;;;;;;;;;;;;;;;;;5059393;28;19927;-88
2022/06/21 01:09:03;;;;;;;;;;;;;;;;;;5068262;28;19965;-90
2022/06/21 01:11:29;;;;;;;;;;;;;;;;;;5064359;28;19920;-89
2022/06/21 01:13:56;;;;;;;;;;;;;;;;;;5057134;28;20053;-90
2022/06/21 01:16:22;;;;;;;;;;;;;;;;;;5067115;28;19966;-90
2022/06/21 01:18:48;;;;;;;;;;;;;;;;;;5083506;28;20412;-89
2022/06/21 01:21:14;;;;;;;;;;;;;;;;;;5067757;28;20381;-87
2022/06/21 01:23:40;;;;;;;;;;;;;;;;;;5082131;28;20358;-90
2022/06/21 01:26:06;;;;;;;;;;;;;;;;;;5082109;28;19965;-90
2022/06/21 01:28:32;;;;;;;;;;;;;;;;;;5061403;28;19924;-90
2022/06/21 01:30:58;;;;;;;;;;;;;;;;;;5070436;28;19937;-89
2022/06/21 01:33:24;;;;;;;;;;;;;;;;;;5077987;28;19920;-89
2022/06/21 01:35:50;;;;;;;;;;;;;;;;;;5084640;28;19920;-89
2022/06/21 01:38:16;;;;;;;;;;;;;;;;;;5059944;28;19931;-89
2022/06/21 01:40:41;;;;;;;;;;;;;;;;;;5068182;28;19928;-90
2022/06/21 01:43:07;;;;;;;;;;;;;;;;;;5076219;28;19982;-92
2022/06/21 01:45:33;;;;;;;;;;;;;;;;;;5084119;28;20353;-89
2022/06/21 01:47:59;;;;;;;;;;;;;;;;;;5064672;28;19963;-92
2022/06/21 01:50:26;;;;;;;;;;;;;;;;;;5063641;28;19920;-90
2022/06/21 01:52:52;;;;;;;;;;;;;;;;;;5060365;28;19924;-90
2022/06/21 01:55:18;;;;;;;;;;;;;;;;;;5064874;28;19935;-90
2022/06/21 01:57:44;;;;;;;;;;;;;;;;;;5061770;28;20359;-91
2022/06/21 02:00:09;;;;;;;;;;;;;;;;;;5065926;28;19936;-91
2022/06/21 02:02:35;;;;;;;;;;;;;;;;;;5067586;28;20585;-86
2022/06/21 02:05:01;;;;;;;;;;;;;;;;;;5079376;28;19985;-92
2022/06/21 02:07:27;;;;;;;;;;;;;;;;;;5065579;28;19928;-90
2022/06/21 02:09:53;;;;;;;;;;;;;;;;;;5069310;28;19920;-88
2022/06/21 02:12:19;;;;;;;;;;;;;;;;;;5068032;28;19978;-90
2022/06/21 02:14:45;;;;;;;;;;;;;;;;;;5065265;28;19927;-89
2022/06/21 02:17:11;;;;;;;;;;;;;;;;;;5068251;28;20017;-90
2022/06/21 02:19:40;;;;;;;;;;;;;;;;;;5066458;28;19919;-89
2022/06/21 02:22:06;;;;;;;;;;;;;;;;;;5080239;28;19926;-92
2022/06/21 02:24:32;;;;;;;;;;;;;;;;;;5062905;28;19943;-89
2022/06/21 02:26:59;;;;;;;;;;;;;;;;;;5082229;28;21602;-90
2022/06/21 02:29:25;;;;;;;;;;;;;;;;;;5060754;28;19926;-90
2022/06/21 02:31:51;;;;;;;;;;;;;;;;;;5071796;28;19920;-90
2022/06/21 02:34:17;;;;;;;;;;;;;;;;;;5081166;28;19963;-86
2022/06/21 02:36:43;;;;;;;;;;;;;;;;;;5063403;28;19927;-91
2022/06/21 02:39:09;;;;;;;;;;;;;;;;;;5061667;28;20371;-90
2022/06/21 02:41:35;;;;;;;;;;;;;;;;;;5077421;28;19999;-91
2022/06/21 02:44:01;;;;;;;;;;;;;;;;;;5076208;28;19919;-90
2022/06/21 02:46:27;;;;;;;;;;;;;;;;;;5078155;28;19919;-90
2022/06/21 02:48:53;;;;;;;;;;;;;;;;;;5079611;28;19927;-91
2022/06/21 02:51:19;;;;;;;;;;;;;;;;;;5068278;28;19926;-90
2022/06/21 02:53:45;;;;;;;;;;;;;;;;;;5068085;28;19973;-92
2022/06/21 02:56:11;;;;;;;;;;;;;;;;;;5065138;28;19963;-91
2022/06/21 02:58:37;;;;;;;;;;;;;;;;;;5082041;28;19924;-93
2022/06/21 03:01:03;;;;;;;;;;;;;;;;;;5067944;28;19935;-90
2022/06/21 03:03:29;;;;;;;;;;;;;;;;;;5085572;28;19960;-90
2022/06/21 03:05:58;;;;;;;;;;;;;;;;;;5057000;28;19927;-91
2022/06/21 03:08:25;;;;;;;;;;;;;;;;;;5059149;28;19928;-91
2022/06/21 03:10:51;;;;;;;;;;;;;;;;;;5064131;28;20371;-89
2022/06/21 03:13:17;;;;;;;;;;;;;;;;;;5082791;28;19934;-90
2022/06/21 03:15:43;;;;;;;;;;;;;;;;;;5063201;28;20295;-90
2022/06/21 03:18:09;;;;;;;;;;;;;;;;;;5069166;28;20274;-91
2022/06/21 03:20:35;;;;;;;;;;;;;;;;;;5064864;28;19920;-91
2022/06/21 03:23:01;;;;;;;;;;;;;;;;;;5084945;28;20426;-92
2022/06/21 03:25:27;;;;;;;;;;;;;;;;;;5080270;28;20297;-87
2022/06/21 03:27:53;;;;;;;;;;;;;;;;;;5069921;28;19920;-92
2022/06/21 03:30:19;;;;;;;;;;;;;;;;;;5075340;28;19920;-90
2022/06/21 03:32:45;;;;;;;;;;;;;;;;;;5087264;28;20710;-87
2022/06/21 03:35:11;;;;;;;;;;;;;;;;;;5074817;28;20045;-91
2022/06/21 03:37:37;;;;;;;;;;;;;;;;;;5067924;28;19927;-91
2022/06/21 03:42:47;;;;;;;;;;;;;;;;;;5089538;28;19920;-90
2022/06/21 03:45:13;;;;;;;;;;;;;;;;;;5086230;28;21136;-90
2022/06/21 03:47:39;;;;;;;;;;;;;;;;;;5071616;28;19943;-89
2022/06/21 03:50:05;;;;;;;;;;;;;;;;;;5072616;28;19932;-90
2022/06/21 03:52:44;;;;;;;;;;;;;;;;;;5084849;28;19926;-91
2022/06/21 03:55:09;;;;;;;;;;;;;;;;;;5073533;28;19920;-90
2022/06/21 03:57:35;;;;;;;;;;;;;;;;;;5091893;28;19928;-92
2022/06/21 04:00:01;;;;;;;;;;;;;;;;;;5080749;28;19923;-90
2022/06/21 04:02:27;;;;;;;;;;;;;;;;;;5073713;28;19928;-89
2022/06/21 04:04:53;;;;;;;;;;;;;;;;;;5067471;28;19927;-91
2022/06/21 04:07:19;;;;;;;;;;;;;;;;;;5086543;28;20006;-90
2022/06/21 04:09:46;;;;;;;;;;;;;;;;;;5092598;28;19927;-88
2022/06/21 04:12:12;;;;;;;;;;;;;;;;;;5068655;28;19942;-88
2022/06/21 04:14:39;;;;;;;;;;;;;;;;;;5074676;28;19920;-91
2022/06/21 04:17:05;;;;;;;;;;;;;;;;;;5064646;28;19920;-91
2022/06/21 04:19:31;;;;;;;;;;;;;;;;;;5073589;28;19924;-91
2022/06/21 04:21:57;;;;;;;;;;;;;;;;;;5086262;28;19920;-92
2022/06/21 04:24:23;;;;;;;;;;;;;;;;;;5071814;28;19973;-88
2022/06/21 04:26:49;;;;;;;;;;;;;;;;;;5094746;28;19928;-88
2022/06/21 04:29:15;;;;;;;;;;;;;;;;;;5096988;28;19966;-89
2022/06/21 04:31:41;;;;;;;;;;;;;;;;;;5087033;28;19928;-88
2022/06/21 04:34:07;;;;;;;;;;;;;;;;;;5087389;28;19932;-89
2022/06/21 04:36:35;;;;;;;;;;;;;;;;;;5099145;28;19927;-88
2022/06/21 04:39:01;;;;;;;;;;;;;;;;;;5077143;28;20302;-90
2022/06/21 04:41:26;;;;;;;;;;;;;;;;;;5088454;28;19942;-90
2022/06/21 04:43:52;;;;;;;;;;;;;;;;;;5092308;28;19939;-88
2022/06/21 04:46:18;;;;;;;;;;;;;;;;;;5085260;28;19919;-88
2022/06/21 04:48:44;;;;;;;;;;;;;;;;;;5083857;28;19983;-88
2022/06/21 04:51:10;;;;;;;;;;;;;;;;;;5101361;28;19931;-89
2022/06/21 04:53:36;;;;;;;;;;;;;;;;;;5084902;28;19928;-86
2022/06/21 04:56:02;;;;;;;;;;;;;;;;;;5093293;28;21059;-86
2022/06/21 04:58:29;;;;;;;;;;;;;;;;;;5097184;28;19919;-89
2022/06/21 05:00:55;;;;;;;;;;;;;;;;;;5073124;28;20020;-86
2022/06/21 05:03:21;;;;;;;;;;;;;;;;;;5086441;28;19920;-86
2022/06/21 05:05:47;;;;;;;;;;;;;;;;;;5060536;28;19928;-84
2022/06/21 05:08:13;;;;;;;;;;;;;;;;;;5058197;28;19927;-85
2022/06/21 05:10:39;;;;;;;;;;;;;;;;;;5061672;28;19920;-87
2022/06/21 05:13:05;;;;;;;;;;;;;;;;;;5061536;28;19957;-88
2022/06/21 05:15:31;;;;;;;;;;;;;;;;;;5062328;28;19932;-86
2022/06/21 05:17:57;;;;;;;;;;;;;;;;;;5064651;28;19920;-91
2022/06/21 05:20:23;;;;;;;;;;;;;;;;;;5059234;28;19987;-86
2022/06/21 05:22:49;;;;;;;;;;;;;;;;;;5087832;28;19931;-85
2022/06/21 05:25:15;;;;;;;;;;;;;;;;;;5075871;28;19927;-86
2022/06/21 05:27:40;;;;;;;;;;;;;;;;;;5085291;28;20019;-87
2022/06/21 05:30:06;;;;;;;;;;;;;;;;;;5064820;28;20369;-84
2022/06/21 05:32:32;;;;;;;;;;;;;;;;;;5081933;28;20298;-84
2022/06/21 05:34:58;;;;;;;;;;;;;;;;;;5065058;28;20030;-82
2022/06/21 05:37:24;;;;;;;;;;;;;;;;;;5075269;28;19969;-78
2022/06/21 05:39:50;;;;;;;;;;;;;;;;;;5085024;28;19934;-84
2022/06/21 05:42:16;;;;;;;;;;;;;;;;;;5079553;28;19924;-85
2022/06/21 05:44:42;;;;;;;;;;;;;;;;;;5064027;28;19928;-85
2022/06/21 05:47:08;;;;;;;;;;;;;;;;;;5089610;28;19924;-85
2022/06/21 05:49:34;;;;;;;;;;;;;;;;;;5071570;28;20077;-84
2022/06/21 05:52:00;;;;;;;;;;;;;;;;;;5069182;28;20367;-85
2022/06/21 05:54:26;;;;;;;;;;;;;;;;;;5085932;28;19925;-86
2022/06/21 05:56:52;;;;;;;;;;;;;;;;;;5063351;28;19934;-88
2022/06/21 05:59:18;;;;;;;;;;;;;;;;;;5066532;28;19946;-86
2022/06/21 06:01:44;;;;;;;;;;;;;;;;;;5073767;28;20440;-79
2022/06/21 06:04:10;;;;;;;;;;;;;;;;;;5083598;28;19924;-82
2022/06/21 06:06:36;;;;;;;;;;;;;;;;;;5068681;28;20010;-85
2022/06/21 06:09:03;;;;;;;;;;;;;;;;;;5056106;28;20413;-80
2022/06/21 06:11:57;;;;;;;;;;;;;;;;;;5089308;28;19974;-77
2022/06/21 06:14:15;;;;;;;;;;;;;;;;;;5074721;28;19928;-84
2022/06/21 06:16:41;;;;;;;;;;;;;;;;;;5077214;28;19935;-84
2022/06/21 06:19:07;;;;;;;;;;;;;;;;;;5060839;28;19928;-85
2022/06/21 06:21:33;;;;;;;;;;;;;;;;;;5067106;28;19924;-83
2022/06/21 06:24:00;;;;;;;;;;;;;;;;;;5088718;28;19935;-84
2022/06/21 06:26:26;;;;;;;;;;;;;;;;;;5070921;28;19931;-83
2022/06/21 06:28:51;;;;;;;;;;;;;;;;;;5056896;28;19944;-83
2022/06/21 06:31:17;;;;;;;;;;;;;;;;;;5083237;28;19969;-83
2022/06/21 06:33:43;;;;;;;;;;;;;;;;;;5080025;28;19924;-83
2022/06/21 06:36:09;;;;;;;;;;;;;;;;;;5063910;28;19959;-83
2022/06/21 06:38:35;;;;;;;;;;;;;;;;;;5059490;28;19924;-84
2022/06/21 06:41:01;;;;;;;;;;;;;;;;;;5064885;28;20029;-84
2022/06/21 06:43:27;;;;;;;;;;;;;;;;;;5076703;28;19924;-83
2022/06/21 06:45:53;;;;;;;;;;;;;;;;;;5078038;28;20018;-84
2022/06/21 06:48:19;;;;;;;;;;;;;;;;;;5071735;28;20418;-84
2022/06/21 06:50:45;;;;;;;;;;;;;;;;;;5086865;28;19923;-83
2022/06/21 06:53:11;;;;;;;;;;;;;;;;;;5056080;28;20351;-82
2022/06/21 06:55:37;;;;;;;;;;;;;;;;;;5065203;28;20274;-85
2022/06/21 06:58:03;;;;;;;;;;;;;;;;;;5068513;28;19924;-85
2022/06/21 07:00:29;;;;;;;;;;;;;;;;;;5077273;28;19977;-85
2022/06/21 07:02:56;;;;;;;;;;;;;;;;;;5082232;28;20371;-85
2022/06/21 07:05:22;;;;;;;;;;;;;;;;;;5070726;28;19960;-84
2022/06/21 07:07:48;;;;;;;;;;;;;;;;;;5080008;28;20551;-84
2022/06/21 07:10:14;;;;;;;;;;;;;;;;;;5087024;28;20381;-84
2022/06/21 07:12:40;;;;;;;;;;;;;;;;;;5074898;28;20363;-84
2022/06/21 07:15:05;;;;;;;;;;;;;;;;;;5068837;28;19974;-83
2022/06/21 07:17:32;;;;;;;;;;;;;;;;;;5070566;28;20180;-83
2022/06/21 07:19:58;;;;;;;;;;;;;;;;;;5071749;28;19923;-86
2022/06/21 07:22:24;;;;;;;;;;;;;;;;;;5070204;28;20382;-84
2022/06/21 07:24:50;;;;;;;;;;;;;;;;;;5079678;28;20392;-84
2022/06/21 07:27:16;;;;;;;;;;;;;;;;;;5078080;28;20310;-84
2022/06/21 07:29:42;;;;;;;;;;;;;;;;;;5061985;28;19935;-84
2022/06/21 07:32:08;;;;;;;;;;;;;;;;;;5066310;28;19924;-87
2022/06/21 07:34:33;;;;;;;;;;;;;;;;;;5081535;28;20509;-85
2022/06/21 07:36:59;;;;;;;;;;;;;;;;;;5067085;28;19924;-89
2022/06/21 07:39:25;;;;;;;;;;;;;;;;;;5062061;28;20321;-85
2022/06/21 07:41:51;;;;;;;;;;;;;;;;;;5064441;28;19924;-84
2022/06/21 07:44:17;;;;;;;;;;;;;;;;;;5062902;28;20528;-86
2022/06/21 07:46:43;;;;;;;;;;;;;;;;;;5082515;28;19923;-79
2022/06/21 07:49:09;;;;;;;;;;;;;;;;;;5058310;28;19924;-83
2022/06/21 07:51:35;;;;;;;;;;;;;;;;;;5078661;28;19931;-86
2022/06/21 07:54:01;;;;;;;;;;;;;;;;;;5068502;28;20240;-88
2022/06/21 07:56:27;;;;;;;;;;;;;;;;;;5083766;28;19923;-92
2022/06/21 07:58:53;;;;;;;;;;;;;;;;;;5069554;28;19928;-92
2022/06/21 08:06:49;;;;;;;;;;;;;;;;;;5075980;28;19931;-82
2022/06/21 08:09:15;;;;;;;;;;;;;;;;;;5081410;28;19985;-80
2022/06/21 08:11:41;;;;;;;;;;;;;;;;;;5070467;28;20026;-80
2022/06/21 08:14:07;;;;;;;;;;;;;;;;;;5081600;28;19924;-88
2022/06/21 08:16:33;;;;;;;;;;;;;;;;;;5087781;28;19930;-87
2022/06/21 08:18:59;;;;;;;;;;;;;;;;;;5069226;28;19927;-88
2022/06/21 08:21:25;;;;;;;;;;;;;;;;;;5060898;28;19930;-85
2022/06/21 08:23:51;;;;;;;;;;;;;;;;;;5069683;28;19931;-84
2022/06/21 08:26:17;;;;;;;;;;;;;;;;;;5076961;28;19930;-84
2022/06/21 08:28:43;;;;;;;;;;;;;;;;;;5069928;28;19931;-84
2022/06/21 08:31:09;;;;;;;;;;;;;;;;;;5066803;28;19928;-85
2022/06/21 08:33:35;;;;;;;;;;;;;;;;;;5077848;28;19931;-87
2022/06/21 08:36:01;;;;;;;;;;;;;;;;;;5077332;28;20287;-85
2022/06/21 08:38:27;;;;;;;;;;;;;;;;;;5075856;28;20006;-85
2022/06/21 08:40:53;;;;;;;;;;;;;;;;;;5069734;28;19928;-86
2022/06/21 08:43:19;;;;;;;;;;;;;;;;;;5089375;28;19924;-85
2022/06/21 08:45:45;;;;;;;;;;;;;;;;;;5077323;28;19958;-84
2022/06/21 08:48:11;;;;;;;;;;;;;;;;;;5059959;28;19928;-85
2022/06/21 08:50:38;;;;;;;;;;;;;;;;;;5060576;28;19931;-86
2022/06/21 08:53:04;;;;;;;;;;;;;;;;;;5077552;28;20283;-85
2022/06/21 08:55:30;;;;;;;;;;;;;;;;;;5083901;28;19975;-86
2022/06/21 08:57:56;;;;;;;;;;;;;;;;;;5076993;28;20009;-86
2022/06/21 09:00:22;;;;;;;;;;;;;;;;;;5059208;28;19924;-86
2022/06/21 09:02:48;;;;;;;;;;;;;;;;;;5083003;28;19931;-85
2022/06/21 09:05:14;;;;;;;;;;;;;;;;;;5076578;28;20401;-86
2022/06/21 09:07:39;;;;;;;;;;;;;;;;;;5060013;28;19993;-86
2022/06/21 09:10:05;;;;;;;;;;;;;;;;;;5078352;28;19985;-87
2022/06/21 09:12:31;;;;;;;;;;;;;;;;;;5081081;28;20393;-85
2022/06/21 09:14:57;;;;;;;;;;;;;;;;;;5059590;28;19924;-85
2022/06/21 09:17:23;;;;;;;;;;;;;;;;;;5059608;28;19967;-86
2022/06/21 09:19:49;;;;;;;;;;;;;;;;;;5076593;28;20371;-86
2022/06/21 09:22:15;;;;;;;;;;;;;;;;;;5062083;28;19950;-86
2022/06/21 09:24:41;;;;;;;;;;;;;;;;;;5087390;28;19924;-87
2022/06/21 09:27:07;;;;;;;;;;;;;;;;;;5059826;28;19924;-88
2022/06/21 09:29:33;;;;;;;;;;;;;;;;;;5076544;28;19978;-86
2022/06/21 09:31:59;;;;;;;;;;;;;;;;;;5077334;28;19927;-86
2022/06/21 09:34:25;;;;;;;;;;;;;;;;;;5082051;28;19924;-87
2022/06/21 09:36:51;;;;;;;;;;;;;;;;;;5083639;28;19924;-87
2022/06/21 09:39:17;;;;;;;;;;;;;;;;;;5076488;28;19967;-87
2022/06/21 09:41:44;;;;;;;;;;;;;;;;;;5059621;28;19925;-87
2022/06/21 09:44:10;;;;;;;;;;;;;;;;;;5071129;28;19924;-87
2022/06/21 09:46:36;;;;;;;;;;;;;;;;;;5059890;28;19993;-86
2022/06/21 09:49:03;;;;;;;;;;;;;;;;;;5084736;28;20352;-87
2022/06/21 09:51:29;;;;;;;;;;;;;;;;;;5059630;28;19931;-86
2022/06/21 09:53:55;;;;;;;;;;;;;;;;;;5060020;28;20295;-87
2022/06/21 09:56:21;;;;;;;;;;;;;;;;;;5059289;28;19986;-88
2022/06/21 09:58:47;;;;;;;;;;;;;;;;;;5076784;28;19924;-87
2022/06/21 10:01:12;;;;;;;;;;;;;;;;;;5058330;28;19932;-88
2022/06/21 10:03:39;;;;;;;;;;;;;;;;;;5059262;28;19931;-87
2022/06/21 10:06:05;;;;;;;;;;;;;;;;;;5079153;28;19923;-87
2022/06/21 10:08:31;;;;;;;;;;;;;;;;;;5062676;28;19928;-87
2022/06/21 10:10:57;;;;;;;;;;;;;;;;;;5075283;28;19931;-87
2022/06/21 10:13:22;;;;;;;;;;;;;;;;;;5068015;28;19981;-87
2022/06/21 10:15:48;;;;;;;;;;;;;;;;;;5072796;28;19970;-87
2022/06/21 10:18:14;;;;;;;;;;;;;;;;;;5087377;28;20355;-86
2022/06/21 10:20:40;;;;;;;;;;;;;;;;;;5076827;28;20397;-87
2022/06/21 10:23:06;;;;;;;;;;;;;;;;;;5064933;28;19924;-87
2022/06/21 10:25:32;;;;;;;;;;;;;;;;;;5075342;28;19928;-86
2022/06/21 10:27:58;;;;;;;;;;;;;;;;;;5075166;28;19924;-87
2022/06/21 10:30:25;;;;;;;;;;;;;;;;;;5057693;28;19928;-87
2022/06/21 10:32:51;;;;;;;;;;;;;;;;;;5060964;28;19924;-86
2022/06/21 10:35:17;;;;;;;;;;;;;;;;;;5076923;28;19931;-87
2022/06/21 10:37:43;;;;;;;;;;;;;;;;;;5090474;28;19931;-86
2022/06/21 10:40:09;;;;;;;;;;;;;;;;;;5075389;28;20355;-87
2022/06/21 10:42:47;;;;;;;;;;;;;;;;;;5068969;28;20381;-87
2022/06/21 10:45:13;;;;;;;;;;;;;;;;;;5074135;28;19923;-87
2022/06/21 10:47:39;;;;;;;;;;;;;;;;;;5075572;28;20061;-86
2022/06/21 10:50:05;;;;;;;;;;;;;;;;;;5093252;28;19924;-87
2022/06/21 10:52:31;;;;;;;;;;;;;;;;;;5075583;28;19924;-87
2022/06/21 10:54:57;;;;;;;;;;;;;;;;;;5092144;28;19924;-88
2022/06/21 10:57:23;;;;;;;;;;;;;;;;;;5079067;28;19924;-87
2022/06/21 11:02:33;;;;;;;;;;;;;;;;;;5076104;28;20054;-87
2022/06/21 11:04:59;;;;;;;;;;;;;;;;;;5066089;28;19923;-89
2022/06/21 11:07:25;;;;;;;;;;;;;;;;;;5073795;28;19924;-86
2022/06/21 11:09:51;;;;;;;;;;;;;;;;;;5058759;28;20015;-86
2022/06/21 11:15:02;;;;;;;;;;;;;;;;;;5085762;28;20424;-87
2022/06/21 11:17:28;;;;;;;;;;;;;;;;;;5075227;28;19924;-87
2022/06/21 11:19:54;;;;;;;;;;;;;;;;;;5075107;28;19931;-87
2022/06/21 11:22:20;;;;;;;;;;;;;;;;;;5059836;28;20279;-86
2022/06/21 11:24:46;;;;;;;;;;;;;;;;;;5079655;28;19970;-85
2022/06/21 11:27:13;;;;;;;;;;;;;;;;;;5074906;28;20367;-85
2022/06/21 11:29:39;;;;;;;;;;;;;;;;;;5074952;28;20016;-85
2022/06/21 11:32:05;;;;;;;;;;;;;;;;;;5074719;28;19967;-87
2022/06/21 11:34:31;;;;;;;;;;;;;;;;;;5074846;28;19932;-87
2022/06/21 11:36:57;;;;;;;;;;;;;;;;;;5058349;28;19932;-86
2022/06/21 11:39:24;;;;;;;;;;;;;;;;;;5058089;28;19981;-87
2022/06/21 11:42:05;;;;;;;;;;;;;;;;;;5058207;28;20048;-86
2022/06/21 11:44:31;;;;;;;;;;;;;;;;;;5061679;28;19972;-86
2022/06/21 11:46:57;;;;;;;;;;;;;;;;;;5058022;28;19979;-87
2022/06/21 11:49:23;;;;;;;;;;;;;;;;;;5073490;28;19931;-87
2022/06/21 11:51:49;;;;;;;;;;;;;;;;;;5086537;28;19941;-85
2022/06/21 11:54:15;;;;;;;;;;;;;;;;;;5065425;28;20409;-85
2022/06/21 11:56:41;;;;;;;;;;;;;;;;;;5059149;28;19928;-87
2022/06/21 11:59:07;;;;;;;;;;;;;;;;;;5079198;28;19924;-87
2022/06/21 12:01:33;;;;;;;;;;;;;;;;;;5061056;28;19928;-85
2022/06/21 12:03:59;;;;;;;;;;;;;;;;;;5082040;28;19924;-87
2022/06/21 12:06:29;;;;;;;;;;;;;;;;;;5078026;28;19931;-85
2022/06/21 12:08:55;;;;;;;;;;;;;;;;;;5077635;28;19928;-85
2022/06/21 12:11:21;;;;;;;;;;;;;;;;;;5067395;28;19924;-85
2022/06/21 12:13:48;;;;;;;;;;;;;;;;;;5060462;28;19924;-85
2022/06/21 12:16:16;;;;;;;;;;;;;;;;;;5061750;28;19999;-85
2022/06/21 12:18:42;;;;;;;;;;;;;;;;;;5060288;28;19931;-86
2022/06/21 12:21:08;;;;;;;;;;;;;;;;;;5081044;28;19928;-85
2022/06/21 12:23:35;;;;;;;;;;;;;;;;;;5078014;28;19923;-86
2022/06/21 12:26:01;;;;;;;;;;;;;;;;;;5088496;28;19950;-86
2022/06/21 12:28:26;;;;;;;;;;;;;;;;;;5077102;28;19924;-85
2022/06/21 12:30:52;;;;;;;;;;;;;;;;;;5060967;28;19971;-85
2022/06/21 12:33:18;;;;;;;;;;;;;;;;;;5060671;28;19932;-85
2022/06/21 12:35:44;;;;;;;;;;;;;;;;;;5078584;28;19928;-84
2022/06/21 12:38:10;;;;;;;;;;;;;;;;;;5079685;28;20288;-86
2022/06/21 12:40:36;;;;;;;;;;;;;;;;;;5066952;28;19928;-87
2022/06/21 12:43:02;;;;;;;;;;;;;;;;;;5088538;28;19935;-86
2022/06/21 12:45:29;;;;;;;;;;;;;;;;;;5087818;28;19970;-85
2022/06/21 12:47:55;;;;;;;;;;;;;;;;;;5060419;28;19928;-85
2022/06/21 12:50:21;;;;;;;;;;;;;;;;;;5070653;28;20032;-85
2022/06/21 12:52:47;;;;;;;;;;;;;;;;;;5077570;28;20034;-85
2022/06/21 12:55:13;;;;;;;;;;;;;;;;;;5077836;28;19962;-86
2022/06/21 12:57:39;;;;;;;;;;;;;;;;;;5077461;28;19924;-86
2022/06/21 13:00:05;;;;;;;;;;;;;;;;;;5069458;28;19924;-86
2022/06/21 13:02:31;;;;;;;;;;;;;;;;;;5065415;28;19924;-85
2022/06/21 13:04:57;;;;;;;;;;;;;;;;;;5071380;28;19989;-86
2022/06/21 13:07:23;;;;;;;;;;;;;;;;;;5086011;28;20014;-87
2022/06/21 13:09:49;;;;;;;;;;;;;;;;;;5086662;28;19924;-84
2022/06/21 13:12:15;;;;;;;;;;;;;;;;;;5089974;28;19924;-84
2022/06/21 13:14:41;;;;;;;;;;;;;;;;;;5083148;28;19932;-85
2022/06/21 13:17:07;;;;;;;;;;;;;;;;;;5097135;28;19931;-85
2022/06/21 13:19:33;;;;;;;;;;;;;;;;;;5068081;28;19935;-85
2022/06/21 13:22:00;;;;;;;;;;;;;;;;;;5068875;28;20072;-84
2022/06/21 13:24:26;;;;;;;;;;;;;;;;;;5061693;28;19924;-84
2022/06/21 13:26:53;;;;;;;;;;;;;;;;;;5076326;28;19935;-83
2022/06/21 13:29:20;;;;;;;;;;;;;;;;;;5075872;28;19923;-85
2022/06/21 13:31:46;;;;;;;;;;;;;;;;;;5076069;28;20512;-84
2022/06/21 13:34:12;;;;;;;;;;;;;;;;;;5088664;28;19933;-84
2022/06/21 13:36:38;;;;;;;;;;;;;;;;;;5062805;28;19963;-85
2022/06/21 13:39:04;;;;;;;;;;;;;;;;;;5061517;28;19974;-85
2022/06/21 13:44:16;;;;;;;;;;;;;;;;;;5078685;28;19974;-84
2022/06/21 13:46:42;;;;;;;;;;;;;;;;;;5080522;28;19931;-84
2022/06/21 13:49:08;;;;;;;;;;;;;;;;;;5080176;28;20422;-85
2022/06/21 13:51:34;;;;;;;;;;;;;;;;;;5071387;28;19924;-84
2022/06/21 13:53:59;;;;;;;;;;;;;;;;;;5092714;28;19939;-85
2022/06/21 13:56:25;;;;;;;;;;;;;;;;;;5087999;28;19908;-86
2022/06/21 13:58:51;;;;;;;;;;;;;;;;;;5098727;28;19924;-85
2022/06/21 14:01:19;;;;;;;;;;;;;;;;;;5082738;28;19924;-85
2022/06/21 14:03:45;;;;;;;;;;;;;;;;;;5077024;28;20425;-85
2022/06/21 14:06:13;;;;;;;;;;;;;;;;;;5072497;28;19976;-85
2022/06/21 14:08:40;;;;;;;;;;;;;;;;;;5087361;28;19983;-85
2022/06/21 14:11:06;;;;;;;;;;;;;;;;;;5068391;28;20241;-85
2022/06/21 14:13:32;;;;;;;;;;;;;;;;;;5072480;28;20105;-84
2022/06/21 14:15:58;;;;;;;;;;;;;;;;;;5069620;28;19943;-85
2022/06/21 14:18:24;;;;;;;;;;;;;;;;;;5068765;28;19923;-85
2022/06/21 14:20:50;;;;;;;;;;;;;;;;;;5093775;28;20291;-84
2022/06/21 14:23:16;;;;;;;;;;;;;;;;;;5071163;28;19924;-84
2022/06/21 14:25:42;;;;;;;;;;;;;;;;;;5064649;28;19934;-84
2022/06/21 14:28:08;;;;;;;;;;;;;;;;;;5077851;28;19930;-84
2022/06/21 14:30:34;;;;;;;;;;;;;;;;;;5065344;28;19925;-84
2022/06/21 14:33:01;;;;;;;;;;;;;;;;;;5058942;28;20351;-85
2022/06/21 14:35:27;;;;;;;;;;;;;;;;;;5058746;28;19924;-84
2022/06/21 14:37:54;;;;;;;;;;;;;;;;;;5076653;28;19928;-85
2022/06/21 14:40:20;;;;;;;;;;;;;;;;;;5081366;28;19928;-85
2022/06/21 14:42:46;;;;;;;;;;;;;;;;;;5074684;28;20379;-84
2022/06/21 14:45:12;;;;;;;;;;;;;;;;;;5075555;28;20322;-85
2022/06/21 14:47:38;;;;;;;;;;;;;;;;;;5075722;28;19924;-84
2022/06/21 14:50:04;;;;;;;;;;;;;;;;;;5077978;28;19931;-85
2022/06/21 14:52:30;;;;;;;;;;;;;;;;;;5074404;28;19924;-85
2022/06/21 14:54:56;;;;;;;;;;;;;;;;;;5057937;28;19931;-86
2022/06/21 14:57:22;;;;;;;;;;;;;;;;;;5058613;28;19924;-86
2022/06/21 14:59:48;;;;;;;;;;;;;;;;;;5072742;28;19927;-85
2022/06/21 15:02:14;;;;;;;;;;;;;;;;;;5083475;28;19924;-85
2022/06/21 15:04:40;;;;;;;;;;;;;;;;;;5068440;28;19924;-84
2022/06/21 15:07:06;;;;;;;;;;;;;;;;;;5058327;28;19924;-84
2022/06/21 15:09:32;;;;;;;;;;;;;;;;;;5059553;28;19935;-85
2022/06/21 15:12:03;;;;;;;;;;;;;;;;;;5057866;28;19931;-84
2022/06/21 15:14:29;;;;;;;;;;;;;;;;;;5075129;28;19924;-83
2022/06/21 15:16:55;;;;;;;;;;;;;;;;;;5074815;28;19928;-83
2022/06/21 15:22:07;;;;;;;;;;;;;;;;;;5084620;28;19924;-83
2022/06/21 15:24:33;;;;;;;;;;;;;;;;;;5074206;28;19928;-83
2022/06/21 15:26:59;;;;;;;;;;;;;;;;;;5057883;28;19927;-84
2022/06/21 15:29:26;;;;;;;;;;;;;;;;;;5075386;28;19924;-84
2022/06/21 15:31:52;;;;;;;;;;;;;;;;;;5077649;28;19948;-82
2022/06/21 15:34:19;;;;;;;;;;;;;;;;;;5080004;28;19924;-83
2022/06/21 15:36:45;;;;;;;;;;;;;;;;;;5078554;28;20359;-84
2022/06/21 15:39:11;;;;;;;;;;;;;;;;;;5088234;28;20018;-83
2022/06/21 15:41:37;;;;;;;;;;;;;;;;;;5061384;28;19924;-84
2022/06/21 15:44:03;;;;;;;;;;;;;;;;;;5061915;28;20378;-84
2022/06/21 15:46:29;;;;;;;;;;;;;;;;;;5078767;28;20359;-83
2022/06/21 15:51:39;;;;;;;;;;;;;;;;;;5077516;28;19931;-83
2022/06/21 15:54:05;;;;;;;;;;;;;;;;;;5078460;28;19925;-83
2022/06/21 15:56:31;;;;;;;;;;;;;;;;;;5066252;28;20018;-84
2022/06/21 15:58:57;;;;;;;;;;;;;;;;;;5077617;28;19960;-84
2022/06/21 16:01:23;;;;;;;;;;;;;;;;;;5078548;28;19931;-83
2022/06/21 16:03:49;;;;;;;;;;;;;;;;;;5060845;28;19924;-84
2022/06/21 16:06:17;;;;;;;;;;;;;;;;;;5061265;28;20014;-83
2022/06/21 16:08:42;;;;;;;;;;;;;;;;;;5076965;28;19989;-82
2022/06/21 16:11:09;;;;;;;;;;;;;;;;;;5077582;28;19967;-84
2022/06/21 16:13:34;;;;;;;;;;;;;;;;;;5061056;28;19924;-83
2022/06/21 16:16:00;;;;;;;;;;;;;;;;;;5061143;28;19924;-83
2022/06/21 16:18:26;;;;;;;;;;;;;;;;;;5092749;28;19970;-84
2022/06/21 16:20:52;;;;;;;;;;;;;;;;;;5078854;28;19935;-83
2022/06/21 16:23:19;;;;;;;;;;;;;;;;;;5080535;28;19924;-82
2022/06/21 16:25:44;;;;;;;;;;;;;;;;;;5060775;28;19975;-82
2022/06/21 16:28:10;;;;;;;;;;;;;;;;;;5087116;28;19978;-83
2022/06/21 16:30:36;;;;;;;;;;;;;;;;;;5075927;28;19986;-84
2022/06/21 16:35:59;;;;;;;;;;;;;;;;;;5069502;28;20324;-85
2022/06/21 16:38:25;;;;;;;;;;;;;;;;;;5065725;28;19963;-82
2022/06/21 16:43:37;;;;;;;;;;;;;;;;;;5090895;28;19975;-84
2022/06/21 16:46:03;;;;;;;;;;;;;;;;;;5073323;28;20332;-83
2022/06/21 16:48:29;;;;;;;;;;;;;;;;;;5067954;28;19946;-82
2022/06/21 16:50:55;;;;;;;;;;;;;;;;;;5076756;28;19928;-84
2022/06/21 16:53:21;;;;;;;;;;;;;;;;;;5077278;28;19931;-83
2022/06/21 16:55:47;;;;;;;;;;;;;;;;;;5059639;28;20379;-82
2022/06/21 16:58:13;;;;;;;;;;;;;;;;;;5074632;28;19974;-83
2022/06/21 17:00:45;;;;;;;;;;;;;;;;;;5085623;28;19924;-83
2022/06/21 17:03:11;;;;;;;;;;;;;;;;;;5070005;28;19924;-83
2022/06/21 17:05:37;;;;;;;;;;;;;;;;;;5068206;28;19931;-84